sensor_id;sensor_type;location;lat;lon;timestamp;pressure;altitude;pressure_sealevel;temperature;humidity
5966;BME280;3009;43.224;27.976;2024-03-08T00:00:39;100855.50;;;4.97;100.00
5966;BME280;3009;43.224;27.976;2024-03-08T00:03:11;100849.41;;;4.97;100.00
5966;BME280;3009;43.224;27.976;2024-03-08T00:05:40;100850.19;;;4.97;100.00
5966;BME280;3009;43.224;27.976;2024-03-08T00:08:08;100834.22;;;4.92;100.00
5966;BME280;3009;43.224;27.976;2024-03-08T00:10:37;100841.13;;;4.88;100.00
5966;BME280;3009;43.224;27.976;2024-03-08T00:13:07;100837.66;;;4.88;100.00
5966;BME280;3009;43.224;27.976;2024-03-08T00:15:36;100829.66;;;4.83;100.00
5966;BME280;3009;43.224;27.976;2024-03-08T00:18:05;100828.06;;;4.82;100.00
5966;BME280;3009;43.224;27.976;2024-03-08T00:20:35;100834.19;;;4.82;100.00
5966;BME280;3009;43.224;27.976;2024-03-08T00:23:03;100812.41;;;4.85;100.00
5966;BME280;3009;43.224;27.976;2024-03-08T00:25:32;100811.63;;;4.85;100.00
5966;BME280;3009;43.224;27.976;2024-03-08T00:28:01;100808.41;;;4.83;100.00
5966;BME280;3009;43.224;27.976;2024-03-08T00:30:29;100810.47;;;4.75;100.00
5966;BME280;3009;43.224;27.976;2024-03-08T00:32:58;100803.59;;;4.74;100.00
5966;BME280;3009;43.224;27.976;2024-03-08T00:35:27;100805.16;;;4.70;100.00
5966;BME280;3009;43.224;27.976;2024-03-08T00:37:56;100802.78;;;4.74;100.00
5966;BME280;3009;43.224;27.976;2024-03-08T00:40:25;100796.66;;;4.68;100.00
5966;BME280;3009;43.224;27.976;2024-03-08T00:42:55;100809.69;;;4.70;100.00
5966;BME280;3009;43.224;27.976;2024-03-08T00:45:24;100796.59;;;4.63;100.00
5966;BME280;3009;43.224;27.976;2024-03-08T00:47:52;100795.56;;;4.64;100.00
5966;BME280;3009;43.224;27.976;2024-03-08T00:50:21;100805.66;;;4.62;100.00
5966;BME280;3009;43.224;27.976;2024-03-08T00:52:51;100793.94;;;4.58;100.00
5966;BME280;3009;43.224;27.976;2024-03-08T00:55:22;100793.13;;;4.57;100.00
5966;BME280;3009;43.224;27.976;2024-03-08T00:57:50;100799.19;;;4.48;100.00
5966;BME280;3009;43.224;27.976;2024-03-08T01:00:20;100788.56;;;4.53;100.00
5966;BME280;3009;43.224;27.976;2024-03-08T01:02:49;100785.13;;;4.47;100.00
5966;BME280;3009;43.224;27.976;2024-03-08T01:05:17;100803.72;;;4.52;100.00
5966;BME280;3009;43.224;27.976;2024-03-08T01:07:46;100785.66;;;4.49;100.00
5966;BME280;3009;43.224;27.976;2024-03-08T01:10:15;100784.59;;;4.50;100.00
5966;BME280;3009;43.224;27.976;2024-03-08T01:12:44;100790.69;;;4.51;100.00
5966;BME280;3009;43.224;27.976;2024-03-08T01:15:13;100784.56;;;4.45;100.00
5966;BME280;3009;43.224;27.976;2024-03-08T01:17:41;100788.03;;;4.46;100.00
5966;BME280;3009;43.224;27.976;2024-03-08T01:20:11;100786.41;;;4.39;100.00
5966;BME280;3009;43.224;27.976;2024-03-08T01:22:40;100782.38;;;4.37;100.00
5966;BME280;3009;43.224;27.976;2024-03-08T01:25:09;100782.09;;;4.33;100.00
5966;BME280;3009;43.224;27.976;2024-03-08T01:27:37;100779.72;;;4.37;100.00
5966;BME280;3009;43.224;27.976;2024-03-08T01:30:08;100774.97;;;4.39;100.00
5966;BME280;3009;43.224;27.976;2024-03-08T01:32:37;100787.66;;;4.32;100.00
5966;BME280;3009;43.224;27.976;2024-03-08T01:35:07;100779.41;;;4.28;100.00
5966;BME280;3009;43.224;27.976;2024-03-08T01:37:36;100796.94;;;4.29;100.00
5966;BME280;3009;43.224;27.976;2024-03-08T01:40:06;100790.03;;;4.28;100.00
5966;BME280;3009;43.224;27.976;2024-03-08T01:42:35;100781.56;;;4.31;100.00
5966;BME280;3009;43.224;27.976;2024-03-08T01:45:07;100786.84;;;4.31;100.00
5966;BME280;3009;43.224;27.976;2024-03-08T01:47:36;100780.44;;;4.27;100.00
5966;BME280;3009;43.224;27.976;2024-03-08T01:50:06;100792.09;;;4.21;100.00
5966;BME280;3009;43.224;27.976;2024-03-08T01:52:36;100785.22;;;4.25;100.00
5966;BME280;3009;43.224;27.976;2024-03-08T01:55:05;100777.03;;;4.32;100.00
5966;BME280;3009;43.224;27.976;2024-03-08T01:57:35;100790.03;;;4.28;100.00
5966;BME280;3009;43.224;27.976;2024-03-08T02:00:07;100780.19;;;4.29;100.00
5966;BME280;3009;43.224;27.976;2024-03-08T02:02:42;100786.31;;;4.29;100.00
5966;BME280;3009;43.224;27.976;2024-03-08T02:05:11;100791.63;;;4.29;100.00
5966;BME280;3009;43.224;27.976;2024-03-08T02:07:41;100781.56;;;4.31;100.00
5966;BME280;3009;43.224;27.976;2024-03-08T02:10:11;100790.03;;;4.33;100.00
5966;BME280;3009;43.224;27.976;2024-03-08T02:12:39;100777.28;;;4.30;100.00
5966;BME280;3009;43.224;27.976;2024-03-08T02:15:09;100785.25;;;4.30;100.00
5966;BME280;3009;43.224;27.976;2024-03-08T02:17:38;100777.53;;;4.29;100.00
5966;BME280;3009;43.224;27.976;2024-03-08T02:20:08;100790.00;;;4.23;100.00
5966;BME280;3009;43.224;27.976;2024-03-08T02:22:39;100775.66;;;4.24;100.00
5966;BME280;3009;43.224;27.976;2024-03-08T02:25:11;100777.25;;;4.20;100.00
5966;BME280;3009;43.224;27.976;2024-03-08T02:27:40;100778.28;;;4.19;100.00
5966;BME280;3009;43.224;27.976;2024-03-08T02:30:09;100777.44;;;4.13;100.00
5966;BME280;3009;43.224;27.976;2024-03-08T02:32:39;100776.16;;;4.16;100.00
5966;BME280;3009;43.224;27.976;2024-03-08T02:35:08;100782.50;;;4.15;100.00
5966;BME280;3009;43.224;27.976;2024-03-08T02:37:37;100783.25;;;4.10;100.00
5966;BME280;3009;43.224;27.976;2024-03-08T02:40:07;100784.63;;;4.13;100.00
5966;BME280;3009;43.224;27.976;2024-03-08T02:42:36;100778.75;;;4.11;100.00
5966;BME280;3009;43.224;27.976;2024-03-08T02:45:06;100774.25;;;4.11;100.00
5966;BME280;3009;43.224;27.976;2024-03-08T02:47:36;100785.66;;;4.12;100.00
5966;BME280;3009;43.224;27.976;2024-03-08T02:50:06;100785.38;;;4.08;100.00
5966;BME280;3009;43.224;27.976;2024-03-08T02:52:35;100789.63;;;4.09;100.00
5966;BME280;3009;43.224;27.976;2024-03-08T02:55:06;100791.53;;;4.14;100.00
5966;BME280;3009;43.224;27.976;2024-03-08T02:57:39;100789.09;;;4.12;100.00
5966;BME280;3009;43.224;27.976;2024-03-08T03:00:08;100789.09;;;4.12;100.00
5966;BME280;3009;43.224;27.976;2024-03-08T03:02:44;100792.25;;;4.09;100.00
5966;BME280;3009;43.224;27.976;2024-03-08T03:05:13;100782.22;;;4.11;100.00
5966;BME280;3009;43.224;27.976;2024-03-08T03:07:41;100781.66;;;4.09;100.00
5966;BME280;3009;43.224;27.976;2024-03-08T03:10:11;100789.66;;;4.14;100.00
5966;BME280;3009;43.224;27.976;2024-03-08T03:12:44;100781.44;;;4.16;100.00
5966;BME280;3009;43.224;27.976;2024-03-08T03:15:15;100786.72;;;4.11;100.00
5966;BME280;3009;43.224;27.976;2024-03-08T03:17:46;100788.03;;;4.08;100.00
5966;BME280;3009;43.224;27.976;2024-03-08T03:20:15;100785.56;;;4.01;100.00
5966;BME280;3009;43.224;27.976;2024-03-08T03:22:49;100786.16;;;4.03;100.00
5966;BME280;3009;43.224;27.976;2024-03-08T03:25:21;100775.53;;;4.03;100.00
5966;BME280;3009;43.224;27.976;2024-03-08T03:27:52;100775.72;;;3.97;100.00
5966;BME280;3009;43.224;27.976;2024-03-08T03:30:23;100779.19;;;3.97;100.00
5966;BME280;3009;43.224;27.976;2024-03-08T03:32:53;100783.44;;;3.98;100.00
5966;BME280;3009;43.224;27.976;2024-03-08T03:35:24;100783.13;;;3.89;100.00
5966;BME280;3009;43.224;27.976;2024-03-08T03:37:52;100784.44;;;3.92;100.00
5966;BME280;3009;43.224;27.976;2024-03-08T03:40:30;100795.88;;;3.93;100.00
5966;BME280;3009;43.224;27.976;2024-03-08T03:42:59;100795.56;;;3.89;100.00
5966;BME280;3009;43.224;27.976;2024-03-08T03:45:28;100787.84;;;3.87;100.00
5966;BME280;3009;43.224;27.976;2024-03-08T03:48:02;100789.16;;;3.85;100.00
5966;BME280;3009;43.224;27.976;2024-03-08T03:50:30;100782.22;;;3.79;100.00
5966;BME280;3009;43.224;27.976;2024-03-08T03:53:03;100786.75;;;3.83;100.00
5966;BME280;3009;43.224;27.976;2024-03-08T03:55:36;100783.31;;;3.83;100.00
5966;BME280;3009;43.224;27.976;2024-03-08T03:58:07;100789.16;;;3.85;100.00
5966;BME280;3009;43.224;27.976;2024-03-08T04:00:38;100793.66;;;3.84;100.00
5966;BME280;3009;43.224;27.976;2024-03-08T04:03:07;100799.78;;;3.85;100.00
5966;BME280;3009;43.224;27.976;2024-03-08T04:05:36;100789.66;;;3.82;100.00
5966;BME280;3009;43.224;27.976;2024-03-08T04:08:05;100793.94;;;3.83;100.00
5966;BME280;3009;43.224;27.976;2024-03-08T04:10:33;100802.38;;;3.80;100.00
5966;BME280;3009;43.224;27.976;2024-03-08T04:13:03;100792.31;;;3.82;100.00
5966;BME280;3009;43.224;27.976;2024-03-08T04:15:32;100801.09;;;3.82;100.00
5966;BME280;3009;43.224;27.976;2024-03-08T04:18:00;100800.78;;;3.79;100.00
5966;BME280;3009;43.224;27.976;2024-03-08T04:20:29;100786.47;;;3.80;100.00
5966;BME280;3009;43.224;27.976;2024-03-08T04:22:58;100793.94;;;3.83;100.00
5966;BME280;3009;43.224;27.976;2024-03-08T04:25:27;100792.81;;;3.79;100.00
5966;BME280;3009;43.224;27.976;2024-03-08T04:27:55;100801.84;;;3.78;100.00
5966;BME280;3009;43.224;27.976;2024-03-08T04:30:25;100799.97;;;3.78;100.00
5966;BME280;3009;43.224;27.976;2024-03-08T04:32:55;100799.44;;;3.76;100.00
5966;BME280;3009;43.224;27.976;2024-03-08T04:35:24;100791.50;;;3.76;100.00
5966;BME280;3009;43.224;27.976;2024-03-08T04:37:52;100794.41;;;3.75;100.00
5966;BME280;3009;43.224;27.976;2024-03-08T04:40:21;100805.25;;;3.73;100.00
5966;BME280;3009;43.224;27.976;2024-03-08T04:42:50;100793.03;;;3.72;100.00
5966;BME280;3009;43.224;27.976;2024-03-08T04:45:19;100801.53;;;3.74;100.00
5966;BME280;3009;43.224;27.976;2024-03-08T04:47:50;100802.84;;;3.71;100.00
5966;BME280;3009;43.224;27.976;2024-03-08T04:50:20;100794.06;;;3.71;100.00
5966;BME280;3009;43.224;27.976;2024-03-08T04:52:48;100802.78;;;3.66;100.00
5966;BME280;3009;43.224;27.976;2024-03-08T04:55:18;100796.97;;;3.69;100.00
5966;BME280;3009;43.224;27.976;2024-03-08T04:57:48;100811.06;;;3.70;100.00
5966;BME280;3009;43.224;27.976;2024-03-08T05:00:17;100809.19;;;3.70;100.00
5966;BME280;3009;43.224;27.976;2024-03-08T05:02:47;100809.72;;;3.67;100.00
5966;BME280;3009;43.224;27.976;2024-03-08T05:05:22;100816.63;;;3.68;100.00
5966;BME280;3009;43.224;27.976;2024-03-08T05:07:51;100809.72;;;3.67;100.00
5966;BME280;3009;43.224;27.976;2024-03-08T05:10:20;100813.38;;;3.61;100.00
5966;BME280;3009;43.224;27.976;2024-03-08T05:12:50;100821.34;;;3.66;100.00
5966;BME280;3009;43.224;27.976;2024-03-08T05:15:23;100819.03;;;3.70;100.00
5966;BME280;3009;43.224;27.976;2024-03-08T05:17:52;100822.22;;;3.72;100.00
5966;BME280;3009;43.224;27.976;2024-03-08T05:20:22;100828.31;;;3.72;100.00
5966;BME280;3009;43.224;27.976;2024-03-08T05:22:51;100826.22;;;3.75;100.00
5966;BME280;3009;43.224;27.976;2024-03-08T05:25:20;100829.16;;;3.78;100.00
5966;BME280;3009;43.224;27.976;2024-03-08T05:27:49;100834.75;;;3.82;100.00
5966;BME280;3009;43.224;27.976;2024-03-08T05:30:18;100826.78;;;3.82;100.00
5966;BME280;3009;43.224;27.976;2024-03-08T05:32:48;100840.06;;;3.82;100.00
5966;BME280;3009;43.224;27.976;2024-03-08T05:35:17;100839.03;;;3.83;100.00
5966;BME280;3009;43.224;27.976;2024-03-08T05:37:49;100841.97;;;3.86;100.00
5966;BME280;3009;43.224;27.976;2024-03-08T05:40:17;100843.31;;;3.89;100.00
5966;BME280;3009;43.224;27.976;2024-03-08T05:42:49;100838.84;;;3.89;100.00
5966;BME280;3009;43.224;27.976;2024-03-08T05:45:17;100842.28;;;3.90;100.00
5966;BME280;3009;43.224;27.976;2024-03-08T05:47:46;100851.84;;;3.91;100.00
5966;BME280;3009;43.224;27.976;2024-03-08T05:50:15;100845.44;;;3.87;100.00
5966;BME280;3009;43.224;27.976;2024-03-08T05:52:43;100851.84;;;3.91;100.00
5966;BME280;3009;43.224;27.976;2024-03-08T05:55:13;100848.63;;;3.89;100.00
5966;BME280;3009;43.224;27.976;2024-03-08T05:57:42;100854.25;;;3.93;100.00
5966;BME280;3009;43.224;27.976;2024-03-08T06:00:13;100855.03;;;3.93;100.00
5966;BME280;3009;43.224;27.976;2024-03-08T06:02:43;100854.00;;;3.94;100.00
5966;BME280;3009;43.224;27.976;2024-03-08T06:05:11;100859.84;;;3.96;100.00
5966;BME280;3009;43.224;27.976;2024-03-08T06:07:39;100869.41;;;3.97;100.00
5966;BME280;3009;43.224;27.976;2024-03-08T06:10:09;100868.34;;;3.98;100.00
5966;BME280;3009;43.224;27.976;2024-03-08T06:12:41;100872.84;;;3.98;100.00
5966;BME280;3009;43.224;27.976;2024-03-08T06:15:10;100877.38;;;3.97;100.00
5966;BME280;3009;43.224;27.976;2024-03-08T06:17:42;100878.41;;;3.96;100.00
5966;BME280;3009;43.224;27.976;2024-03-08T06:20:11;100875.78;;;4.01;100.00
5966;BME280;3009;43.224;27.976;2024-03-08T06:22:41;100881.16;;;4.06;100.00
5966;BME280;3009;43.224;27.976;2024-03-08T06:25:10;100875.28;;;4.04;100.00
5966;BME280;3009;43.224;27.976;2024-03-08T06:27:43;100876.91;;;4.05;100.00
5966;BME280;3009;43.224;27.976;2024-03-08T06:30:14;100874.84;;;4.13;100.00
5966;BME280;3009;43.224;27.976;2024-03-08T06:32:43;100879.34;;;4.12;100.00
5966;BME280;3009;43.224;27.976;2024-03-08T06:35:11;100879.91;;;4.14;100.00
5966;BME280;3009;43.224;27.976;2024-03-08T06:37:43;100891.13;;;4.21;100.00
5966;BME280;3009;43.224;27.976;2024-03-08T06:40:12;100881.53;;;4.20;100.00
5966;BME280;3009;43.224;27.976;2024-03-08T06:42:43;100884.28;;;4.31;100.00
5966;BME280;3009;43.224;27.976;2024-03-08T06:45:12;100896.47;;;4.26;100.00
5966;BME280;3009;43.224;27.976;2024-03-08T06:47:46;100887.72;;;4.31;100.00
5966;BME280;3009;43.224;27.976;2024-03-08T06:50:15;100888.84;;;4.35;100.00
5966;BME280;3009;43.224;27.976;2024-03-08T06:52:43;100888.84;;;4.35;100.00
5966;BME280;3009;43.224;27.976;2024-03-08T06:55:15;100878.22;;;4.35;100.00
5966;BME280;3009;43.224;27.976;2024-03-08T06:57:45;100886.78;;;4.42;100.00
5966;BME280;3009;43.224;27.976;2024-03-08T07:00:14;100885.69;;;4.38;100.00
5966;BME280;3009;43.224;27.976;2024-03-08T07:02:46;100890.13;;;4.33;100.00
5966;BME280;3009;43.224;27.976;2024-03-08T07:05:16;100891.75;;;4.34;100.00
5966;BME280;3009;43.224;27.976;2024-03-08T07:07:45;100896.47;;;4.26;100.00
5966;BME280;3009;43.224;27.976;2024-03-08T07:10:15;100888.25;;;4.28;100.00
5966;BME280;3009;43.224;27.976;2024-03-08T07:12:45;100889.34;;;4.32;100.00
5966;BME280;3009;43.224;27.976;2024-03-08T07:15:13;100895.19;;;4.34;100.00
5966;BME280;3009;43.224;27.976;2024-03-08T07:17:43;100891.25;;;4.37;100.00
5966;BME280;3009;43.224;27.976;2024-03-08T07:20:12;100884.13;;;4.42;100.00
5966;BME280;3009;43.224;27.976;2024-03-08T07:22:42;100899.50;;;4.40;100.00
5966;BME280;3009;43.224;27.976;2024-03-08T07:25:14;100899.22;;;4.42;100.00
5966;BME280;3009;43.224;27.976;2024-03-08T07:27:51;100893.41;;;4.45;100.00
5966;BME280;3009;43.224;27.976;2024-03-08T07:30:21;100902.16;;;4.40;100.00
5966;BME280;3009;43.224;27.976;2024-03-08T07:33:07;100884.63;;;4.39;100.00
5966;BME280;3009;43.224;27.976;2024-03-08T07:35:40;100884.94;;;4.48;100.00
5966;BME280;3009;43.224;27.976;2024-03-08T07:38:09;100890.84;;;4.55;100.00
5966;BME280;3009;43.224;27.976;2024-03-08T07:40:39;100885.00;;;4.53;100.00
5966;BME280;3009;43.224;27.976;2024-03-08T07:43:13;100887.94;;;4.57;100.00
5966;BME280;3009;43.224;27.976;2024-03-08T07:45:42;100896.75;;;4.63;100.00
5966;BME280;3009;43.224;27.976;2024-03-08T07:48:10;100893.31;;;4.62;100.00
5966;BME280;3009;43.224;27.976;2024-03-08T07:50:40;100890.66;;;4.67;100.00
5966;BME280;3009;43.224;27.976;2024-03-08T07:53:09;100896.25;;;4.71;100.00
5966;BME280;3009;43.224;27.976;2024-03-08T07:55:37;100888.53;;;4.69;100.00
5966;BME280;3009;43.224;27.976;2024-03-08T07:58:09;100872.31;;;4.66;100.00
5966;BME280;3009;43.224;27.976;2024-03-08T08:00:41;100888.59;;;4.74;100.00
5966;BME280;3009;43.224;27.976;2024-03-08T08:03:10;100882.25;;;4.81;100.00
5966;BME280;3009;43.224;27.976;2024-03-08T08:05:39;100895.03;;;4.89;100.00
5966;BME280;3009;43.224;27.976;2024-03-08T08:08:08;100883.88;;;4.82;100.00
5966;BME280;3009;43.224;27.976;2024-03-08T08:10:38;100883.88;;;4.82;100.00
5966;BME280;3009;43.224;27.976;2024-03-08T08:13:07;100889.66;;;4.73;100.00
5966;BME280;3009;43.224;27.976;2024-03-08T08:15:35;100885.44;;;4.83;100.00
5966;BME280;3009;43.224;27.976;2024-03-08T08:18:05;100884.91;;;4.81;100.00
5966;BME280;3009;43.224;27.976;2024-03-08T08:20:37;100887.31;;;4.82;100.00
5966;BME280;3009;43.224;27.976;2024-03-08T08:23:05;100884.47;;;4.94;100.00
5966;BME280;3009;43.224;27.976;2024-03-08T08:25:33;100888.94;;;4.88;100.00
5966;BME280;3009;43.224;27.976;2024-03-08T08:28:02;100896.16;;;4.98;100.00
5966;BME280;3009;43.224;27.976;2024-03-08T08:30:31;100890.56;;;4.94;100.00
5966;BME280;3009;43.224;27.976;2024-03-08T08:33:01;100881.00;;;4.93;100.00
5966;BME280;3009;43.224;27.976;2024-03-08T08:35:31;100894.06;;;5.00;100.00
5966;BME280;3009;43.224;27.976;2024-03-08T08:38:00;100876.56;;;5.04;100.00
5966;BME280;3009;43.224;27.976;2024-03-08T08:40:31;100881.88;;;5.09;100.00
5966;BME280;3009;43.224;27.976;2024-03-08T08:43:00;100877.34;;;5.10;100.00
5966;BME280;3009;43.224;27.976;2024-03-08T08:45:30;100886.16;;;5.15;100.00
5966;BME280;3009;43.224;27.976;2024-03-08T08:47:59;100883.25;;;5.22;100.00
5966;BME280;3009;43.224;27.976;2024-03-08T08:50:27;100910.34;;;5.19;100.00
5966;BME280;3009;43.224;27.976;2024-03-08T08:52:57;100888.59;;;5.27;100.00
5966;BME280;3009;43.224;27.976;2024-03-08T08:55:26;100892.63;;;5.30;100.00
5966;BME280;3009;43.224;27.976;2024-03-08T08:57:56;100904.56;;;5.27;100.00
5966;BME280;3009;43.224;27.976;2024-03-08T09:00:24;100905.34;;;5.23;100.00
5966;BME280;3009;43.224;27.976;2024-03-08T09:02:55;100905.03;;;5.14;100.00
5966;BME280;3009;43.224;27.976;2024-03-08T09:05:25;100912.72;;;5.10;100.00
5966;BME280;3009;43.224;27.976;2024-03-08T09:07:54;100902.91;;;5.16;100.00
5966;BME280;3009;43.224;27.976;2024-03-08T09:10:24;100905.28;;;5.12;100.00
5966;BME280;3009;43.224;27.976;2024-03-08T09:12:55;100899.72;;;5.14;100.00
5966;BME280;3009;43.224;27.976;2024-03-08T09:15:24;100907.94;;;5.12;100.00
5966;BME280;3009;43.224;27.976;2024-03-08T09:17:56;100903.16;;;5.09;100.00
5966;BME280;3009;43.224;27.976;2024-03-08T09:20:24;100905.53;;;5.11;100.00
5966;BME280;3009;43.224;27.976;2024-03-08T09:22:53;100905.78;;;5.04;100.00
5966;BME280;3009;43.224;27.976;2024-03-08T09:25:23;100907.94;;;5.07;100.00
5966;BME280;3009;43.224;27.976;2024-03-08T09:27:52;100909.75;;;5.07;100.00
5966;BME280;3009;43.224;27.976;2024-03-08T09:30:21;100908.47;;;5.09;100.00
5966;BME280;3009;43.224;27.976;2024-03-08T09:32:49;100918.06;;;5.15;100.00
5966;BME280;3009;43.224;27.976;2024-03-08T09:35:20;100913.78;;;5.09;100.00
5966;BME280;3009;43.224;27.976;2024-03-08T09:37:49;100913.00;;;5.19;100.00
5966;BME280;3009;43.224;27.976;2024-03-08T09:40:18;100907.47;;;5.26;100.00
5966;BME280;3009;43.224;27.976;2024-03-08T09:42:49;100906.66;;;5.20;100.00
5966;BME280;3009;43.224;27.976;2024-03-08T09:45:20;100921.31;;;5.28;100.00
5966;BME280;3009;43.224;27.976;2024-03-08T09:47:51;100905.34;;;5.28;100.00
5966;BME280;3009;43.224;27.976;2024-03-08T09:50:20;100911.75;;;5.32;100.00
5966;BME280;3009;43.224;27.976;2024-03-08T09:52:49;100910.66;;;5.28;100.00
5966;BME280;3009;43.224;27.976;2024-03-08T09:55:17;100900.28;;;5.26;100.00
5966;BME280;3009;43.224;27.976;2024-03-08T09:57:51;100921.03;;;5.29;100.00
5966;BME280;3009;43.224;27.976;2024-03-08T10:00:39;100917.06;;;5.27;100.00
5966;BME280;3009;43.224;27.976;2024-03-08T10:03:09;100902.16;;;5.26;100.00
5966;BME280;3009;43.224;27.976;2024-03-08T10:05:41;100904.84;;;5.31;100.00
5966;BME280;3009;43.224;27.976;2024-03-08T10:08:12;100901.13;;;5.37;100.00
5966;BME280;3009;43.224;27.976;2024-03-08T10:10:42;100914.47;;;5.42;100.00
5966;BME280;3009;43.224;27.976;2024-03-08T10:13:13;100903.84;;;5.47;100.00
5966;BME280;3009;43.224;27.976;2024-03-08T10:15:44;100894.03;;;5.53;100.00
5966;BME280;3009;43.224;27.976;2024-03-08T10:18:12;100902.03;;;5.63;100.00
5966;BME280;3009;43.224;27.976;2024-03-08T10:20:41;100895.13;;;5.67;100.00
5966;BME280;3009;43.224;27.976;2024-03-08T10:23:10;100887.44;;;5.76;100.00
5966;BME280;3009;43.224;27.976;2024-03-08T10:25:38;100882.13;;;5.86;100.00
5966;BME280;3009;43.224;27.976;2024-03-08T10:28:07;100885.88;;;5.91;100.00
5966;BME280;3009;43.224;27.976;2024-03-08T10:30:37;100886.97;;;6.00;100.00
5966;BME280;3009;43.224;27.976;2024-03-08T10:33:05;100889.31;;;5.91;100.00
5966;BME280;3009;43.224;27.976;2024-03-08T10:35:34;100878.41;;;5.93;100.00
5966;BME280;3009;43.224;27.976;2024-03-08T10:38:05;100891.47;;;5.94;100.00
5966;BME280;3009;43.224;27.976;2024-03-08T10:40:39;100887.50;;;5.97;100.00
5966;BME280;3009;43.224;27.976;2024-03-08T10:43:15;100888.03;;;5.99;100.00
5966;BME280;3009;43.224;27.976;2024-03-08T10:45:48;100882.19;;;6.02;100.00
5966;BME280;3009;43.224;27.976;2024-03-08T10:48:27;100884.84;;;5.97;100.00
5966;BME280;3009;43.224;27.976;2024-03-08T10:51:04;100884.03;;;5.96;100.00
5966;BME280;3009;43.224;27.976;2024-03-08T10:53:35;100891.72;;;5.88;100.00
5966;BME280;3009;43.224;27.976;2024-03-08T10:56:08;100889.59;;;5.90;100.00
5966;BME280;3009;43.224;27.976;2024-03-08T10:58:37;100884.25;;;5.79;100.00
5966;BME280;3009;43.224;27.976;2024-03-08T11:01:08;100877.91;;;5.91;100.00
5966;BME280;3009;43.224;27.976;2024-03-08T11:03:47;100885.88;;;5.96;100.00
5966;BME280;3009;43.224;27.976;2024-03-08T11:06:23;100882.97;;;5.97;100.00
5966;BME280;3009;43.224;27.976;2024-03-08T11:08:57;100873.34;;;5.91;100.00
5966;BME280;3009;43.224;27.976;2024-03-08T11:11:27;100872.00;;;5.89;100.00
5966;BME280;3009;43.224;27.976;2024-03-08T11:14:01;100868.31;;;5.90;100.00
5966;BME280;3009;43.224;27.976;2024-03-08T11:16:39;100877.91;;;5.91;100.00
5966;BME280;3009;43.224;27.976;2024-03-08T11:19:25;100873.59;;;5.74;100.00
5966;BME280;3009;43.224;27.976;2024-03-08T11:22:03;100870.38;;;5.67;100.00
5966;BME280;3009;43.224;27.976;2024-03-08T11:24:39;100874.66;;;5.68;100.00
5966;BME280;3009;43.224;27.976;2024-03-08T11:27:12;100871.97;;;5.63;100.00
5966;BME280;3009;43.224;27.976;2024-03-08T11:29:41;100869.03;;;5.59;100.00
5966;BME280;3009;43.224;27.976;2024-03-08T11:32:12;100881.28;;;5.60;100.00
5966;BME280;3009;43.224;27.976;2024-03-08T11:34:42;100881.81;;;5.57;100.00
5966;BME280;3009;43.224;27.976;2024-03-08T11:37:12;100878.88;;;5.59;100.00
5966;BME280;3009;43.224;27.976;2024-03-08T11:39:47;100869.81;;;5.60;100.00
5966;BME280;3009;43.224;27.976;2024-03-08T11:42:16;100857.09;;;5.62;100.00
5966;BME280;3009;43.224;27.976;2024-03-08T11:44:46;100870.69;;;5.76;100.00
5966;BME280;3009;43.224;27.976;2024-03-08T11:47:16;100867.75;;;5.77;100.00
5966;BME280;3009;43.224;27.976;2024-03-08T11:49:45;100872.53;;;5.70;100.00
5966;BME280;3009;43.224;27.976;2024-03-08T11:52:16;100861.91;;;5.75;100.00
5966;BME280;3009;43.224;27.976;2024-03-08T11:54:53;100871.22;;;5.88;100.00
5966;BME280;3009;43.224;27.976;2024-03-08T11:57:25;100868.88;;;5.97;100.00
5966;BME280;3009;43.224;27.976;2024-03-08T11:59:55;100866.47;;;6.00;100.00
5966;BME280;3009;43.224;27.976;2024-03-08T12:02:26;100863.56;;;6.07;100.00
5966;BME280;3009;43.224;27.976;2024-03-08T12:04:58;100849.47;;;6.12;100.00
5966;BME280;3009;43.224;27.976;2024-03-08T12:07:30;100856.09;;;6.09;100.00
5966;BME280;3009;43.224;27.976;2024-03-08T12:10:17;100862.50;;;6.08;100.00
5966;BME280;3009;43.224;27.976;2024-03-08T12:12:47;100860.34;;;6.05;100.00
5966;BME280;3009;43.224;27.976;2024-03-08T12:15:17;100852.66;;;5.98;100.00
5966;BME280;3009;43.224;27.976;2024-03-08T12:17:49;100853.69;;;5.92;100.00
5966;BME280;3009;43.224;27.976;2024-03-08T12:20:21;100864.59;;;5.91;100.00
5966;BME280;3009;43.224;27.976;2024-03-08T12:22:51;100860.31;;;5.90;100.00
5966;BME280;3009;43.224;27.976;2024-03-08T12:25:20;100856.56;;;5.85;100.00
5966;BME280;3009;43.224;27.976;2024-03-08T12:27:49;100869.91;;;5.96;100.00
5966;BME280;3009;43.224;27.976;2024-03-08T12:30:21;100860.03;;;5.81;100.00
5966;BME280;3009;43.224;27.976;2024-03-08T12:32:55;100862.44;;;5.82;100.00
5966;BME280;3009;43.224;27.976;2024-03-08T12:35:26;100868.84;;;5.81;100.00
5966;BME280;3009;43.224;27.976;2024-03-08T12:37:55;100873.59;;;5.79;100.00
5966;BME280;3009;43.224;27.976;2024-03-08T12:40:27;100862.41;;;5.62;100.00
5966;BME280;3009;43.224;27.976;2024-03-08T12:42:57;100865.84;;;5.57;100.00
5966;BME280;3009;43.224;27.976;2024-03-08T12:45:26;100865.03;;;5.57;100.00
5966;BME280;3009;43.224;27.976;2024-03-08T12:47:56;100859.44;;;5.53;100.00
5966;BME280;3009;43.224;27.976;2024-03-08T12:50:26;100867.44;;;5.53;100.00
5966;BME280;3009;43.224;27.976;2024-03-08T12:52:54;100867.41;;;5.48;100.00
5966;BME280;3009;43.224;27.976;2024-03-08T12:55:22;100864.25;;;5.56;100.00
5966;BME280;3009;43.224;27.976;2024-03-08T12:57:51;100864.50;;;5.60;100.00
5966;BME280;3009;43.224;27.976;2024-03-08T13:00:20;100854.69;;;5.71;100.00
5966;BME280;3009;43.224;27.976;2024-03-08T13:02:50;100864.00;;;5.73;100.00
5966;BME280;3009;43.224;27.976;2024-03-08T13:05:20;100856.59;;;5.75;100.00
5966;BME280;3009;43.224;27.976;2024-03-08T13:07:50;100856.28;;;5.72;100.00
5966;BME280;3009;43.224;27.976;2024-03-08T13:10:20;100855.47;;;5.61;100.00
5966;BME280;3009;43.224;27.976;2024-03-08T13:12:50;100853.91;;;5.70;100.00
5966;BME280;3009;43.224;27.976;2024-03-08T13:15:20;100850.94;;;5.61;100.00